sensor_id;sensor_type;location;lat;lon;timestamp;pressure;altitude;pressure_sealevel;temperature;humidity
13422;BME280;6782;55.904;13.396;2023-02-28T00:00:25;102832.34;;;-0.25;100.00
13422;BME280;6782;55.904;13.396;2023-02-28T00:02:53;102840.44;;;-0.19;100.00
13422;BME280;6782;55.904;13.396;2023-02-28T00:05:21;102842.88;;;-0.22;100.00
13422;BME280;6782;55.904;13.396;2023-02-28T00:07:50;102842.53;;;-0.28;100.00
13422;BME280;6782;55.904;13.396;2023-02-28T00:10:18;102854.22;;;-0.04;100.00
13422;BME280;6782;55.904;13.396;2023-02-28T00:12:46;102840.44;;;-0.35;100.00
13422;BME280;6782;55.904;13.396;2023-02-28T00:15:15;102839.94;;;-0.44;100.00
13422;BME280;6782;55.904;13.396;2023-02-28T00:17:43;102840.56;;;-0.48;100.00
13422;BME280;6782;55.904;13.396;2023-02-28T00:20:12;102842.72;;;-0.41;100.00
13422;BME280;6782;55.904;13.396;2023-02-28T00:22:40;102849.03;;;-0.36;100.00
13422;BME280;6782;55.904;13.396;2023-02-28T00:25:08;102847.13;;;-0.55;100.00
13422;BME280;6782;55.904;13.396;2023-02-28T00:27:37;102854.97;;;-0.53;100.00
13422;BME280;6782;55.904;13.396;2023-02-28T00:30:07;102847.38;;;-0.50;100.00
13422;BME280;6782;55.904;13.396;2023-02-28T00:32:37;102851.59;;;-0.52;100.00
13422;BME280;6782;55.904;13.396;2023-02-28T00:35:06;102850.34;;;-0.59;100.00
13422;BME280;6782;55.904;13.396;2023-02-28T00:37:33;102854.66;;;-0.59;100.00
13422;BME280;6782;55.904;13.396;2023-02-28T00:40:00;102856.41;;;-0.58;100.00
13422;BME280;6782;55.904;13.396;2023-02-28T00:42:30;102856.91;;;-0.66;100.00
13422;BME280;6782;55.904;13.396;2023-02-28T00:44:58;102856.91;;;-0.66;100.00
13422;BME280;6782;55.904;13.396;2023-02-28T00:47:31;102875.03;;;-0.66;100.00
13422;BME280;6782;55.904;13.396;2023-02-28T00:50:00;102873.41;;;-0.64;100.00
13422;BME280;6782;55.904;13.396;2023-02-28T00:52:27;102878.41;;;-0.67;100.00
13422;BME280;6782;55.904;13.396;2023-02-28T00:54:54;102869.84;;;-0.66;100.00
13422;BME280;6782;55.904;13.396;2023-02-28T00:57:21;102869.50;;;-0.72;100.00
13422;BME280;6782;55.904;13.396;2023-02-28T00:59:49;102869.50;;;-0.72;100.00
13422;BME280;6782;55.904;13.396;2023-02-28T01:02:18;102872.91;;;-0.73;100.00
13422;BME280;6782;55.904;13.396;2023-02-28T01:04:46;102869.34;;;-0.75;100.00
13422;BME280;6782;55.904;13.396;2023-02-28T01:07:14;102892.28;;;-0.35;100.00
13422;BME280;6782;55.904;13.396;2023-02-28T01:09:43;102870.78;;;-0.80;100.00
13422;BME280;6782;55.904;13.396;2023-02-28T01:12:10;102869.47;;;-0.88;100.00
13422;BME280;6782;55.904;13.396;2023-02-28T01:14:37;102869.97;;;-0.79;100.00
13422;BME280;6782;55.904;13.396;2023-02-28T01:17:04;102877.38;;;-0.85;100.00
13422;BME280;6782;55.904;13.396;2023-02-28T01:19:32;102869.09;;;-0.94;100.00
13422;BME280;6782;55.904;13.396;2023-02-28T01:22:01;102871.69;;;-0.94;100.00
13422;BME280;6782;55.904;13.396;2023-02-28T01:24:29;102883.13;;;-0.90;100.00
13422;BME280;6782;55.904;13.396;2023-02-28T01:26:57;102873.94;;;-1.00;100.00
13422;BME280;6782;55.904;13.396;2023-02-28T01:29:24;102880.97;;;-0.97;100.00
13422;BME280;6782;55.904;13.396;2023-02-28T01:31:51;102883.59;;;-1.12;100.00
13422;BME280;6782;55.904;13.396;2023-02-28T01:34:18;102884.75;;;-1.07;100.00
13422;BME280;6782;55.904;13.396;2023-02-28T01:36:45;102887.44;;;-1.05;100.00
13422;BME280;6782;55.904;13.396;2023-02-28T01:39:13;102885.47;;;-1.09;100.00
13422;BME280;6782;55.904;13.396;2023-02-28T01:41:41;102879.31;;;-1.26;100.00
13422;BME280;6782;55.904;13.396;2023-02-28T01:47:10;102856.00;;;-1.55;100.00
13422;BME280;6782;55.904;13.396;2023-02-28T01:49:38;102863.31;;;-1.48;100.00
13422;BME280;6782;55.904;13.396;2023-02-28T01:52:06;102869.19;;;-1.36;100.00
13422;BME280;6782;55.904;13.396;2023-02-28T01:54:35;102852.44;;;-1.57;100.00
13422;BME280;6782;55.904;13.396;2023-02-28T01:57:05;102857.06;;;-1.66;100.00
13422;BME280;6782;55.904;13.396;2023-02-28T01:59:36;102881.09;;;-1.25;100.00
13422;BME280;6782;55.904;13.396;2023-02-28T02:02:06;102876.91;;;-1.38;100.00
13422;BME280;6782;55.904;13.396;2023-02-28T02:04:37;102872.44;;;-1.40;100.00
13422;BME280;6782;55.904;13.396;2023-02-28T02:07:06;102874.22;;;-1.39;100.00
13422;BME280;6782;55.904;13.396;2023-02-28T02:09:33;102876.91;;;-1.38;100.00
13422;BME280;6782;55.904;13.396;2023-02-28T02:12:09;102870.81;;;-1.38;100.00
13422;BME280;6782;55.904;13.396;2023-02-28T02:14:53;102866.28;;;-1.42;100.00
13422;BME280;6782;55.904;13.396;2023-02-28T02:17:29;102873.84;;;-1.45;100.00
13422;BME280;6782;55.904;13.396;2023-02-28T02:20:22;102874.81;;;-1.43;100.00
13422;BME280;6782;55.904;13.396;2023-02-28T02:23:27;102877.41;;;-1.43;100.00
13422;BME280;6782;55.904;13.396;2023-02-28T02:26:15;102871.06;;;-1.48;100.00
13422;BME280;6782;55.904;13.396;2023-02-28T02:29:08;102860.47;;;-1.67;100.00
13422;BME280;6782;55.904;13.396;2023-02-28T02:32:34;102872.56;;;-1.66;100.00
13422;BME280;6782;55.904;13.396;2023-02-28T02:35:12;102872.44;;;-1.55;100.00
13422;BME280;6782;55.904;13.396;2023-02-28T02:37:44;102881.25;;;-1.51;100.00
13422;BME280;6782;55.904;13.396;2023-02-28T02:40:16;102878.31;;;-1.57;100.00
13422;BME280;6782;55.904;13.396;2023-02-28T02:42:50;102880.63;;;-1.47;100.00
13422;BME280;6782;55.904;13.396;2023-02-28T02:45:23;102880.81;;;-1.44;100.00
13422;BME280;6782;55.904;13.396;2023-02-28T02:47:53;102874.75;;;-1.59;100.00
13422;BME280;6782;55.904;13.396;2023-02-28T02:50:27;102890.72;;;-1.37;100.00
13422;BME280;6782;55.904;13.396;2023-02-28T02:52:59;102889.72;;;-1.54;100.00
13422;BME280;6782;55.904;13.396;2023-02-28T02:55:28;102874.56;;;-1.62;100.00
13422;BME280;6782;55.904;13.396;2023-02-28T02:57:59;102867.97;;;-1.57;100.00
13422;BME280;6782;55.904;13.396;2023-02-28T03:00:31;102872.75;;;-1.63;100.00
13422;BME280;6782;55.904;13.396;2023-02-28T03:03:01;102876.69;;;-1.55;100.00
13422;BME280;6782;55.904;13.396;2023-02-28T03:05:33;102874.56;;;-1.62;100.00
13422;BME280;6782;55.904;13.396;2023-02-28T03:08:03;102884.28;;;-1.58;100.00
13422;BME280;6782;55.904;13.396;2023-02-28T03:10:35;102885.09;;;-1.59;100.00
13422;BME280;6782;55.904;13.396;2023-02-28T03:16:27;102879.34;;;-1.68;100.00
13422;BME280;6782;55.904;13.396;2023-02-28T03:19:03;102884.91;;;-1.62;100.00
13422;BME280;6782;55.904;13.396;2023-02-28T03:21:39;102883.09;;;-1.63;100.00
13422;BME280;6782;55.904;13.396;2023-02-28T03:24:11;102891.69;;;-1.50;100.00
13422;BME280;6782;55.904;13.396;2023-02-28T03:26:48;102891.13;;;-1.59;100.00
13422;BME280;6782;55.904;13.396;2023-02-28T03:29:23;102901.53;;;-1.30;100.00
13422;BME280;6782;55.904;13.396;2023-02-28T03:31:58;102884.53;;;-1.68;100.00
13422;BME280;6782;55.904;13.396;2023-02-28T03:34:32;102887.38;;;-1.64;100.00
13422;BME280;6782;55.904;13.396;2023-02-28T03:37:05;102887.16;;;-1.81;100.00
13422;BME280;6782;55.904;13.396;2023-02-28T03:39:38;102881.66;;;-1.87;100.00
13422;BME280;6782;55.904;13.396;2023-02-28T03:42:11;102883.41;;;-1.86;100.00
13422;BME280;6782;55.904;13.396;2023-02-28T03:44:42;102876.59;;;-1.99;100.00
13422;BME280;6782;55.904;13.396;2023-02-28T03:47:14;102877.84;;;-1.93;100.00
13422;BME280;6782;55.904;13.396;2023-02-28T03:49:47;102875.28;;;-1.93;100.00
13422;BME280;6782;55.904;13.396;2023-02-28T03:52:17;102869.50;;;-1.88;100.00
13422;BME280;6782;55.904;13.396;2023-02-28T03:54:48;102875.47;;;-1.90;100.00
13422;BME280;6782;55.904;13.396;2023-02-28T03:57:22;102869.44;;;-1.90;100.00
13422;BME280;6782;55.904;13.396;2023-02-28T03:59:55;102866.72;;;-1.92;100.00
13422;BME280;6782;55.904;13.396;2023-02-28T04:02:23;102872.16;;;-1.87;100.00
13422;BME280;6782;55.904;13.396;2023-02-28T04:04:50;102866.13;;;-1.87;100.00
13422;BME280;6782;55.904;13.396;2023-02-28T04:07:18;102877.56;;;-1.69;100.00
13422;BME280;6782;55.904;13.396;2023-02-28T04:09:45;102864.41;;;-1.87;100.00
13422;BME280;6782;55.904;13.396;2023-02-28T04:12:12;102862.00;;;-1.99;100.00
13422;BME280;6782;55.904;13.396;2023-02-28T04:14:39;102867.88;;;-2.01;100.00
13422;BME280;6782;55.904;13.396;2023-02-28T04:17:05;102867.94;;;-2.00;100.00
13422;BME280;6782;55.904;13.396;2023-02-28T04:19:33;102850.38;;;-2.33;100.00
13422;BME280;6782;55.904;13.396;2023-02-28T04:22:00;102852.16;;;-2.32;100.00
13422;BME280;6782;55.904;13.396;2023-02-28T04:24:28;102859.41;;;-2.26;100.00
13422;BME280;6782;55.904;13.396;2023-02-28T04:26:56;102861.88;;;-2.28;100.00
13422;BME280;6782;55.904;13.396;2023-02-28T04:29:25;102863.75;;;-2.25;100.00
13422;BME280;6782;55.904;13.396;2023-02-28T04:31:52;102866.84;;;-2.31;100.00
13422;BME280;6782;55.904;13.396;2023-02-28T04:34:20;102873.81;;;-2.30;100.00
13422;BME280;6782;55.904;13.396;2023-02-28T04:36:48;102866.16;;;-2.28;100.00
13422;BME280;6782;55.904;13.396;2023-02-28T04:39:19;102863.28;;;-2.33;100.00
13422;BME280;6782;55.904;13.396;2023-02-28T04:41:47;102867.56;;;-2.33;100.00
13422;BME280;6782;55.904;13.396;2023-02-28T04:44:15;102873.44;;;-2.36;100.00
13422;BME280;6782;55.904;13.396;2023-02-28T04:46:43;102862.34;;;-2.61;100.00
13422;BME280;6782;55.904;13.396;2023-02-28T04:49:11;102874.91;;;-2.67;100.00
13422;BME280;6782;55.904;13.396;2023-02-28T04:51:38;102872.81;;;-2.60;100.00
13422;BME280;6782;55.904;13.396;2023-02-28T04:54:05;102886.78;;;-2.43;100.00
13422;BME280;6782;55.904;13.396;2023-02-28T04:56:32;102885.00;;;-2.44;100.00
13422;BME280;6782;55.904;13.396;2023-02-28T04:59:01;102886.34;;;-2.36;100.00
13422;BME280;6782;55.904;13.396;2023-02-28T05:01:31;102897.50;;;-2.37;100.00
13422;BME280;6782;55.904;13.396;2023-02-28T05:03:59;102895.03;;;-2.48;100.00
13422;BME280;6782;55.904;13.396;2023-02-28T05:06:29;102905.53;;;-2.32;100.00
13422;BME280;6782;55.904;13.396;2023-02-28T05:08:56;102912.56;;;-2.17;100.00
13422;BME280;6782;55.904;13.396;2023-02-28T05:11:25;102901.63;;;-2.26;100.00
13422;BME280;6782;55.904;13.396;2023-02-28T05:13:54;102905.59;;;-2.18;100.00
13422;BME280;6782;55.904;13.396;2023-02-28T05:16:23;102908.84;;;-2.07;100.00
13422;BME280;6782;55.904;13.396;2023-02-28T05:18:50;102904.56;;;-2.07;100.00
13422;BME280;6782;55.904;13.396;2023-02-28T05:21:27;102908.88;;;-1.93;100.00
13422;BME280;6782;55.904;13.396;2023-02-28T05:23:56;102902.84;;;-1.93;100.00
13422;BME280;6782;55.904;13.396;2023-02-28T05:26:24;102892.50;;;-1.93;100.00
13422;BME280;6782;55.904;13.396;2023-02-28T05:28:52;102896.97;;;-1.91;100.00
13422;BME280;6782;55.904;13.396;2023-02-28T05:31:19;102900.34;;;-1.92;100.00
13422;BME280;6782;55.904;13.396;2023-02-28T05:33:48;102900.63;;;-1.87;100.00
13422;BME280;6782;55.904;13.396;2023-02-28T05:36:15;102901.91;;;-1.80;100.00
13422;BME280;6782;55.904;13.396;2023-02-28T05:38:42;102905.41;;;-1.65;100.00
13422;BME280;6782;55.904;13.396;2023-02-28T05:41:10;102907.22;;;-1.50;100.00
13422;BME280;6782;55.904;13.396;2023-02-28T05:43:38;102917.06;;;-1.44;100.00
13422;BME280;6782;55.904;13.396;2023-02-28T05:46:05;102923.56;;;-1.36;100.00
13422;BME280;6782;55.904;13.396;2023-02-28T05:48:32;102926.88;;;-1.24;100.00
13422;BME280;6782;55.904;13.396;2023-02-28T05:51:02;102928.31;;;-1.14;100.00
13422;BME280;6782;55.904;13.396;2023-02-28T05:53:29;102927.25;;;-1.03;100.00
13422;BME280;6782;55.904;13.396;2023-02-28T05:55:57;102928.31;;;-1.00;100.00
13422;BME280;6782;55.904;13.396;2023-02-28T05:58:24;102934.94;;;-0.90;100.00
13422;BME280;6782;55.904;13.396;2023-02-28T06:00:54;102934.81;;;-0.92;100.00
13422;BME280;6782;55.904;13.396;2023-02-28T06:03:21;102930.63;;;-0.90;100.00
13422;BME280;6782;55.904;13.396;2023-02-28T06:05:49;102932.97;;;-0.80;100.00
13422;BME280;6782;55.904;13.396;2023-02-28T06:08:17;102939.19;;;-0.76;100.00
13422;BME280;6782;55.904;13.396;2023-02-28T06:10:44;102945.34;;;-0.74;100.00
13422;BME280;6782;55.904;13.396;2023-02-28T06:13:12;102944.75;;;-0.70;100.00
13422;BME280;6782;55.904;13.396;2023-02-28T06:15:39;102950.81;;;-0.70;100.00
13422;BME280;6782;55.904;13.396;2023-02-28T06:18:07;102967.84;;;-0.58;100.00
13422;BME280;6782;55.904;13.396;2023-02-28T06:20:34;102979.19;;;-0.56;100.00
13422;BME280;6782;55.904;13.396;2023-02-28T06:23:01;102994.50;;;-0.46;100.00
13422;BME280;6782;55.904;13.396;2023-02-28T06:25:30;103012.84;;;-0.27;100.00
13422;BME280;6782;55.904;13.396;2023-02-28T06:27:58;103031.53;;;-0.18;100.00
13422;BME280;6782;55.904;13.396;2023-02-28T06:30:25;103035.25;;;0.02;100.00
13422;BME280;6782;55.904;13.396;2023-02-28T06:32:54;103028.97;;;-0.02;100.00
13422;BME280;6782;55.904;13.396;2023-02-28T06:35:21;103030.97;;;-0.13;100.00
13422;BME280;6782;55.904;13.396;2023-02-28T06:37:48;103043.34;;;-0.23;100.00
13422;BME280;6782;55.904;13.396;2023-02-28T06:40:16;103052.34;;;-0.17;100.00
13422;BME280;6782;55.904;13.396;2023-02-28T06:42:45;103050.94;;;-0.26;100.00
13422;BME280;6782;55.904;13.396;2023-02-28T06:45:12;103057.13;;;-0.24;100.00
13422;BME280;6782;55.904;13.396;2023-02-28T06:47:59;103060.78;;;-0.21;100.00
13422;BME280;6782;55.904;13.396;2023-02-28T06:50:46;103077.50;;;-0.16;100.00
13422;BME280;6782;55.904;13.396;2023-02-28T06:53:34;103077.75;;;-0.11;100.00
13422;BME280;6782;55.904;13.396;2023-02-28T06:56:22;103095.38;;;-0.06;100.00
13422;BME280;6782;55.904;13.396;2023-02-28T06:59:11;103100.53;;;0.09;100.00
13422;BME280;6782;55.904;13.396;2023-02-28T07:01:58;103107.13;;;0.19;100.00
13422;BME280;6782;55.904;13.396;2023-02-28T07:04:45;103111.97;;;0.13;100.00
13422;BME280;6782;55.904;13.396;2023-02-28T07:07:32;103123.22;;;0.28;100.00
13422;BME280;6782;55.904;13.396;2023-02-28T07:10:21;103122.50;;;0.30;100.00
13422;BME280;6782;55.904;13.396;2023-02-28T07:13:09;103123.59;;;0.19;100.00
13422;BME280;6782;55.904;13.396;2023-02-28T07:15:59;103131.34;;;0.34;100.00
13422;BME280;6782;55.904;13.396;2023-02-28T07:18:47;103130.19;;;0.29;100.00
13422;BME280;6782;55.904;13.396;2023-02-28T07:21:34;103140.88;;;0.49;100.00
13422;BME280;6782;55.904;13.396;2023-02-28T07:24:21;103141.28;;;0.41;100.00
13422;BME280;6782;55.904;13.396;2023-02-28T07:27:11;103149.81;;;0.54;100.00
13422;BME280;6782;55.904;13.396;2023-02-28T07:29:58;103159.56;;;0.58;100.00
13422;BME280;6782;55.904;13.396;2023-02-28T07:32:48;103163.50;;;0.83;100.00
13422;BME280;6782;55.904;13.396;2023-02-28T07:35:35;103169.53;;;0.82;100.00
13422;BME280;6782;55.904;13.396;2023-02-28T07:38:23;103174.44;;;0.77;100.00
13422;BME280;6782;55.904;13.396;2023-02-28T07:41:10;103181.78;;;0.84;100.00
13422;BME280;6782;55.904;13.396;2023-02-28T07:43:58;103180.72;;;0.81;100.00
13422;BME280;6782;55.904;13.396;2023-02-28T07:46:45;103188.63;;;0.68;100.00
13422;BME280;6782;55.904;13.396;2023-02-28T07:49:35;103192.72;;;0.79;100.00
13422;BME280;6782;55.904;13.396;2023-02-28T07:52:23;103191.28;;;0.84;100.00
13422;BME280;6782;55.904;13.396;2023-02-28T07:55:10;103204.78;;;1.09;100.00
13422;BME280;6782;55.904;13.396;2023-02-28T07:57:59;103211.31;;;1.17;100.00
13422;BME280;6782;55.904;13.396;2023-02-28T08:00:46;103219.81;;;1.14;100.00
13422;BME280;6782;55.904;13.396;2023-02-28T08:03:33;103221.88;;;1.20;100.00
13422;BME280;6782;55.904;13.396;2023-02-28T08:06:24;103222.13;;;0.94;100.00
13422;BME280;6782;55.904;13.396;2023-02-28T08:09:11;103230.59;;;1.06;100.00
13422;BME280;6782;55.904;13.396;2023-02-28T08:11:58;103230.63;;;1.22;100.00
13422;BME280;6782;55.904;13.396;2023-02-28T08:14:45;103239.88;;;1.17;100.00
13422;BME280;6782;55.904;13.396;2023-02-28T08:17:32;103242.31;;;1.14;100.00
13422;BME280;6782;55.904;13.396;2023-02-28T08:20:19;103250.94;;;1.29;100.00
13422;BME280;6782;55.904;13.396;2023-02-28T08:23:08;103261.94;;;1.56;100.00
13422;BME280;6782;55.904;13.396;2023-02-28T08:25:56;103261.94;;;1.56;100.00
13422;BME280;6782;55.904;13.396;2023-02-28T08:28:43;103273.16;;;1.71;100.00
13422;BME280;6782;55.904;13.396;2023-02-28T08:31:31;103276.50;;;1.84;100.00
13422;BME280;6782;55.904;13.396;2023-02-28T08:34:18;103273.97;;;1.86;100.00
13422;BME280;6782;55.904;13.396;2023-02-28T08:37:05;103263.47;;;1.84;100.00
13422;BME280;6782;55.904;13.396;2023-02-28T08:39:54;103267.69;;;1.82;100.00
13422;BME280;6782;55.904;13.396;2023-02-28T08:42:41;103267.13;;;1.88;100.00
13422;BME280;6782;55.904;13.396;2023-02-28T08:45:28;103269.66;;;1.86;100.00
13422;BME280;6782;55.904;13.396;2023-02-28T08:48:15;103267.22;;;1.73;100.00
13422;BME280;6782;55.904;13.396;2023-02-28T08:51:04;103272.25;;;1.70;100.00
13422;BME280;6782;55.904;13.396;2023-02-28T08:53:52;103286.22;;;2.05;100.00
13422;BME280;6782;55.904;13.396;2023-02-28T08:56:41;103286.53;;;2.11;100.00
13422;BME280;6782;55.904;13.396;2023-02-28T08:59:29;103280.53;;;1.96;100.00
13422;BME280;6782;55.904;13.396;2023-02-28T09:02:17;103278.44;;;1.88;100.00
13422;BME280;6782;55.904;13.396;2023-02-28T09:05:04;103274.84;;;1.86;100.00
13422;BME280;6782;55.904;13.396;2023-02-28T09:07:52;103282.06;;;2.08;100.00
13422;BME280;6782;55.904;13.396;2023-02-28T09:10:39;103287.59;;;2.14;100.00
13422;BME280;6782;55.904;13.396;2023-02-28T09:13:28;103298.81;;;2.47;100.00
13422;BME280;6782;55.904;13.396;2023-02-28T09:16:16;103289.91;;;2.60;100.00
13422;BME280;6782;55.904;13.396;2023-02-28T09:19:04;103302.53;;;2.52;100.00
13422;BME280;6782;55.904;13.396;2023-02-28T09:21:51;103306.22;;;2.73;100.00
13422;BME280;6782;55.904;13.396;2023-02-28T09:24:38;103305.31;;;2.73;100.00
13422;BME280;6782;55.904;13.396;2023-02-28T09:27:25;103303.41;;;2.86;100.00
13422;BME280;6782;55.904;13.396;2023-02-28T09:30:15;103305.84;;;2.83;100.00
13422;BME280;6782;55.904;13.396;2023-02-28T09:33:02;103298.50;;;2.92;100.00
13422;BME280;6782;55.904;13.396;2023-02-28T09:35:50;103300.34;;;2.77;100.00
13422;BME280;6782;55.904;13.396;2023-02-28T09:38:37;103306.47;;;3.13;100.00
13422;BME280;6782;55.904;13.396;2023-02-28T09:41:26;103303.97;;;2.98;100.00
13422;BME280;6782;55.904;13.396;2023-02-28T09:44:22;103312.16;;;3.24;100.00
13422;BME280;6782;55.904;13.396;2023-02-28T09:47:19;103313.16;;;3.26;100.00
13422;BME280;6782;55.904;13.396;2023-02-28T09:50:17;103296.44;;;3.22;100.00
13422;BME280;6782;55.904;13.396;2023-02-28T09:53:15;103280.88;;;3.06;100.00
13422;BME280;6782;55.904;13.396;2023-02-28T09:56:08;103261.34;;;2.79;100.00
13422;BME280;6782;55.904;13.396;2023-02-28T09:58:59;103261.50;;;2.82;100.00
13422;BME280;6782;55.904;13.396;2023-02-28T10:01:57;103259.69;;;2.63;100.00
13422;BME280;6782;55.904;13.396;2023-02-28T10:04:50;103252.63;;;2.78;100.00
13422;BME280;6782;55.904;13.396;2023-02-28T10:07:53;103255.94;;;2.93;100.00
13422;BME280;6782;55.904;13.396;2023-02-28T10:10:44;103251.59;;;3.11;100.00
13422;BME280;6782;55.904;13.396;2023-02-28T10:13:35;103239.91;;;3.03;100.00
13422;BME280;6782;55.904;13.396;2023-02-28T10:16:28;103244.47;;;3.07;100.00
13422;BME280;6782;55.904;13.396;2023-02-28T10:19:20;103228.25;;;2.78;100.00
13422;BME280;6782;55.904;13.396;2023-02-28T10:22:12;103236.22;;;2.98;100.00
13422;BME280;6782;55.904;13.396;2023-02-28T10:25:01;103244.91;;;3.16;100.00
13422;BME280;6782;55.904;13.396;2023-02-28T10:27:49;103237.22;;;3.20;100.00
13422;BME280;6782;55.904;13.396;2023-02-28T10:30:40;103233.66;;;3.37;100.00
13422;BME280;6782;55.904;13.396;2023-02-28T10:33:30;103231.19;;;3.40;100.00
13422;BME280;6782;55.904;13.396;2023-02-28T10:36:20;103243.03;;;3.51;100.00
13422;BME280;6782;55.904;13.396;2023-02-28T10:39:38;103243.44;;;3.79;100.00
13422;BME280;6782;55.904;13.396;2023-02-28T10:42:27;103233.81;;;3.78;100.00
13422;BME280;6782;55.904;13.396;2023-02-28T10:45:16;103245.19;;;3.80;100.00
13422;BME280;6782;55.904;13.396;2023-02-28T10:48:05;103238.34;;;3.82;100.00
13422;BME280;6782;55.904;13.396;2023-02-28T10:51:13;103226.38;;;3.87;100.00
13422;BME280;6782;55.904;13.396;2023-02-28T10:54:02;103219.69;;;3.94;100.00
13422;BME280;6782;55.904;13.396;2023-02-28T10:57:14;103220.88;;;4.21;100.00
13422;BME280;6782;55.904;13.396;2023-02-28T11:00:14;103225.72;;;4.53;100.00
13422;BME280;6782;55.904;13.396;2023-02-28T11:03:01;103213.38;;;4.49;100.00
13422;BME280;6782;55.904;13.396;2023-02-28T11:06:14;103210.66;;;4.48;100.00
13422;BME280;6782;55.904;13.396;2023-02-28T11:09:04;103200.34;;;4.51;100.00
13422;BME280;6782;55.904;13.396;2023-02-28T11:11:59;103205.69;;;4.54;100.00
13422;BME280;6782;55.904;13.396;2023-02-28T11:14:51;103206.44;;;4.72;100.00
13422;BME280;6782;55.904;13.396;2023-02-28T11:17:38;103202.34;;;4.78;100.00
13422;BME280;6782;55.904;13.396;2023-02-28T11:20:28;103204.34;;;4.85;100.00
13422;BME280;6782;55.904;13.396;2023-02-28T11:23:16;103200.28;;;4.92;100.00
13422;BME280;6782;55.904;13.396;2023-02-28T11:26:04;103200.72;;;5.04;100.00
13422;BME280;6782;55.904;13.396;2023-02-28T11:29:03;103191.81;;;5.21;100.00
13422;BME280;6782;55.904;13.396;2023-02-28T11:32:10;103194.22;;;5.39;100.00
13422;BME280;6782;55.904;13.396;2023-02-28T11:35:03;103184.63;;;5.39;100.00
13422;BME280;6782;55.904;13.396;2023-02-28T11:37:51;103167.88;;;5.34;100.00
13422;BME280;6782;55.904;13.396;2023-02-28T11:40:45;103167.25;;;5.65;100.00
13422;BME280;6782;55.904;13.396;2023-02-28T11:43:45;103157.91;;;5.72;100.00
13422;BME280;6782;55.904;13.396;2023-02-28T11:46:40;103140.50;;;5.74;100.00
13422;BME280;6782;55.904;13.396;2023-02-28T11:49:39;103135.94;;;5.92;100.00
13422;BME280;6782;55.904;13.396;2023-02-28T11:52:35;103132.56;;;5.96;100.00
13422;BME280;6782;55.904;13.396;2023-02-28T11:55:27;103130.41;;;6.09;100.00
13422;BME280;6782;55.904;13.396;2023-02-28T11:58:38;103104.19;;;6.08;100.00
13422;BME280;6782;55.904;13.396;2023-02-28T12:01:43;103096.00;;;6.25;100.00
13422;BME280;6782;55.904;13.396;2023-02-28T12:04:40;103084.31;;;6.43;100.00
13422;BME280;6782;55.904;13.396;2023-02-28T12:07:38;103069.78;;;6.52;100.00
13422;BME280;6782;55.904;13.396;2023-02-28T12:10:33;103072.38;;;6.80;100.00
13422;BME280;6782;55.904;13.396;2023-02-28T12:13:26;103052.34;;;6.84;100.00
13422;BME280;6782;55.904;13.396;2023-02-28T12:19:48;103012.19;;;7.18;100.00
13422;BME280;6782;55.904;13.396;2023-02-28T12:22:45;102998.28;;;7.20;100.00
13422;BME280;6782;55.904;13.396;2023-02-28T12:25:51;102983.28;;;7.49;100.00
13422;BME280;6782;55.904;13.396;2023-02-28T12:28:46;102956.41;;;7.61;100.00
13422;BME280;6782;55.904;13.396;2023-02-28T12:31:37;102928.84;;;7.42;100.00
13422;BME280;6782;55.904;13.396;2023-02-28T12:34:31;102904.50;;;7.49;100.00
13422;BME280;6782;55.904;13.396;2023-02-28T12:37:29;102884.00;;;7.70;100.00
13422;BME280;6782;55.904;13.396;2023-02-28T12:40:21;102851.16;;;7.90;100.00
13422;BME280;6782;55.904;13.396;2023-02-28T12:43:12;102808.69;;;7.69;100.00
13422;BME280;6782;55.904;13.396;2023-02-28T12:46:09;102786.59;;;7.61;100.00
13422;BME280;6782;55.904;13.396;2023-02-28T12:48:59;102770.50;;;7.86;100.00
13422;BME280;6782;55.904;13.396;2023-02-28T12:51:47;102712.09;;;7.56;100.00
13422;BME280;6782;55.904;13.396;2023-02-28T12:54:42;102714.66;;;7.96;100.00
13422;BME280;6782;55.904;13.396;2023-02-28T12:57:36;102668.72;;;7.76;100.00
13422;BME280;6782;55.904;13.396;2023-02-28T13:00:33;102637.28;;;7.81;100.00
13422;BME280;6782;55.904;13.396;2023-02-28T13:03:36;102593.66;;;7.87;100.00
13422;BME280;6782;55.904;13.396;2023-02-28T13:06:34;102560.63;;;8.04;100.00
13422;BME280;6782;55.904;13.396;2023-02-28T13:09:28;102539.00;;;8.20;100.00
13422;BME280;6782;55.904;13.396;2023-02-28T13:12:17;102498.88;;;8.29;100.00
13422;BME280;6782;55.904;13.396;2023-02-28T13:15:12;102474.53;;;8.44;100.00
13422;BME280;6782;55.904;13.396;2023-02-28T13:18:27;102421.13;;;8.51;100.00
13422;BME280;6782;55.904;13.396;2023-02-28T13:21:23;102359.84;;;8.55;100.00
13422;BME280;6782;55.904;13.396;2023-02-28T13:24:11;102310.97;;;8.81;100.00
13422;BME280;6782;55.904;13.396;2023-02-28T13:27:32;102224.91;;;8.62;100.00
13422;BME280;6782;55.904;13.396;2023-02-28T13:34:12;102110.81;;;8.42;100.00
13422;BME280;6782;55.904;13.396;2023-02-28T13:37:32;102063.53;;;8.51;100.00
13422;BME280;6782;55.904;13.396;2023-02-28T13:40:31;102023.34;;;8.70;100.00
13422;BME280;6782;55.904;13.396;2023-02-28T13:44:00;101966.28;;;8.52;100.00
13422;BME280;6782;55.904;13.396;2023-02-28T13:50:21;101905.88;;;8.81;100.00
13422;BME280;6782;55.904;13.396;2023-02-28T13:56:45;101786.63;;;8.55;100.00
13422;BME280;6782;55.904;13.396;2023-02-28T13:59:47;101764.69;;;8.63;100.00
13422;BME280;6782;55.904;13.396;2023-02-28T14:03:13;101683.19;;;8.41;100.00
13422;BME280;6782;55.904;13.396;2023-02-28T14:06:22;101733.16;;;8.92;100.00
13422;BME280;6782;55.904;13.396;2023-02-28T14:09:19;101677.88;;;9.04;100.00
13422;BME280;6782;55.904;13.396;2023-02-28T14:15:56;101557.84;;;8.64;100.00
13422;BME280;6782;55.904;13.396;2023-02-28T14:18:50;101533.25;;;8.85;100.00
13422;BME280;6782;55.904;13.396;2023-02-28T14:21:39;101445.72;;;8.54;100.00